Retour à l'actu

LFPG

METAR

LFPG 081630Z 21015KT CAVOK 21/09 Q1009 TEMPO 22015G25KT

TAF

LFPG 081100Z
  • | 0812/0918 20012KT 9999 BKN030 TX27/0912Z TN13/0905Z
  • | PROB40 TEMPO 0812/0815 22015G25KT
  • | BECMG 0818/0820 CAVOK
  • | PROB30 TEMPO 0906/0907 TSRA SCT090CB
  • | PROB40 TEMPO 0915/0918 22015G25KT 3000 TSRA SCT060CB